Ironsides, Maryland
Current Conditions -  °F | °C
As of 10:56 AM on Friday 24 Oct 2014 (Local Time) from KNYG Reporting Station
Broken Clouds Broken Clouds  
Wind Chill: 60°   Ceiling: 14000
Heat Index: 60°   Visibility: 10mi
Dew Point: 42°   Wind: 9mph
Humidity: 51%   Direction: 360°N
Pressure: 30.01"   Gusts: 23mph
Location:  38.49°N, 77.16°W
Report Text: KNYG 241456Z 36008G20KT 10SM FEW050 BKN140 16/06 A3001 RMK AO2 SLP162 T01560056 $
Loading
Personal Weather Stations






























Interactive Weather Map
Tropical Storm Tracking
New forecast layout! Learn more

10-Day Weather Forecast

Advertisements
Track Severe Weather on mobile